Time;durP1;ratioP1;P1;durP2;ratioP2;P2;SDS_P1;SDS_P2;PMS_P1;PMS_P2;Temp;Humidity;BMP_temperature;BMP_pressure;BME280_temperature;BME280_humidity;BME280_pressure;Samples;Min_cycle;Max_cycle;Signal;HPM_P1;HPM_P2
2023/12/29 00:00:16;;;;;;;40.93;29.30;;;;;;;3.97;64.07;95567.16;5083320;28;20220;-68
2023/12/29 00:02:41;;;;;;;38.20;29.43;;;;;;;3.98;63.97;95583.59;5074699;28;20320;-68
2023/12/29 00:05:07;;;;;;;34.63;27.60;;;;;;;4.01;63.50;95574.78;5070788;28;20217;-69
2023/12/29 00:07:32;;;;;;;38.17;28.77;;;;;;;3.70;64.54;95574.97;5057106;28;20240;-70
2023/12/29 00:09:58;;;;;;;42.37;27.67;;;;;;;3.87;64.13;95578.25;5077232;28;20193;-68
2023/12/29 00:12:24;;;;;;;36.43;28.47;;;;;;;3.98;63.69;95578.41;5060116;28;20275;-69
2023/12/29 00:14:49;;;;;;;39.10;27.37;;;;;;;4.04;63.53;95582.41;5072788;28;20226;-67
2023/12/29 00:17:14;;;;;;;36.60;26.97;;;;;;;3.83;63.94;95580.22;5069316;28;20224;-69
2023/12/29 00:19:40;;;;;;;42.23;26.77;;;;;;;3.83;63.97;95576.78;5068379;28;20224;-69
2023/12/29 00:22:05;;;;;;;37.40;27.40;;;;;;;3.84;63.96;95584.50;5067581;28;20242;-70
2023/12/29 00:24:31;;;;;;;35.10;25.73;;;;;;;3.80;64.22;95585.63;5078862;28;20211;-68
2023/12/29 00:26:58;;;;;;;35.93;26.83;;;;;;;3.88;63.61;95575.56;5076445;28;20296;-69
2023/12/29 00:29:23;;;;;;;36.37;26.83;;;;;;;3.83;64.00;95580.22;5072166;28;20300;-69
2023/12/29 00:31:49;;;;;;;36.53;27.60;;;;;;;3.90;63.43;95578.91;5070098;28;20237;-71
2023/12/29 00:34:14;;;;;;;32.37;24.87;;;;;;;3.94;63.26;95577.78;5073304;28;20184;-68
2023/12/29 00:36:39;;;;;;;32.07;25.17;;;;;;;3.82;63.49;95580.31;5072809;28;20181;-70
2023/12/29 00:39:05;;;;;;;33.00;24.67;;;;;;;3.92;63.35;95577.03;5071176;28;20228;-68
2023/12/29 00:41:31;;;;;;;33.30;24.70;;;;;;;3.95;64.05;95582.03;5080693;28;20262;-68
2023/12/29 00:43:57;;;;;;;35.10;26.87;;;;;;;3.90;64.35;95575.47;5072818;28;20224;-69
2023/12/29 00:46:22;;;;;;;33.47;25.00;;;;;;;3.89;63.99;95579.00;5079862;28;20273;-68
2023/12/29 00:48:48;;;;;;;35.17;24.60;;;;;;;3.85;64.00;95570.56;5072159;28;20561;-70
2023/12/29 00:51:13;;;;;;;32.07;24.57;;;;;;;3.92;63.82;95569.22;5079984;28;20229;-68
2023/12/29 00:53:39;;;;;;;36.27;27.60;;;;;;;3.91;64.09;95559.75;5067908;28;20371;-70
2023/12/29 00:56:10;;;;;;;32.53;26.63;;;;;;;4.03;64.49;95559.91;5074898;28;20211;-69
2023/12/29 00:58:36;;;;;;;37.03;27.80;;;;;;;3.95;65.29;95563.81;5070897;28;20236;-70
2023/12/29 01:01:01;;;;;;;35.60;26.57;;;;;;;3.94;64.90;95550.94;5072217;28;20234;-70
2023/12/29 01:03:26;;;;;;;38.77;26.53;;;;;;;3.90;64.49;95549.44;5063705;28;20189;-69
2023/12/29 01:05:52;;;;;;;35.87;27.17;;;;;;;3.97;64.51;95563.72;5066530;28;20260;-68
2023/12/29 01:08:17;;;;;;;34.37;28.03;;;;;;;3.90;64.54;95558.09;5074698;28;20269;-71
2023/12/29 01:10:43;;;;;;;39.10;28.33;;;;;;;3.92;64.52;95543.22;5072582;28;20242;-69
2023/12/29 01:13:08;;;;;;;36.50;28.20;;;;;;;3.85;64.84;95556.69;5074406;28;20193;-68
2023/12/29 01:15:33;;;;;;;39.77;28.00;;;;;;;3.79;65.34;95552.72;5076268;28;20185;-68
2023/12/29 01:17:59;;;;;;;34.27;27.17;;;;;;;3.90;64.84;95555.50;5073466;28;20294;-69
2023/12/29 01:20:24;;;;;;;35.90;26.20;;;;;;;3.84;64.79;95553.28;5080215;28;20216;-69
2023/12/29 01:22:50;;;;;;;32.20;25.83;;;;;;;3.77;64.71;95562.41;5075292;28;20226;-69
2023/12/29 01:25:15;;;;;;;41.10;29.90;;;;;;;3.88;64.28;95561.72;5073784;28;20315;-69
2023/12/29 01:27:41;;;;;;;35.40;27.70;;;;;;;3.46;65.73;95566.91;5071434;28;20192;-70
2023/12/29 01:30:07;;;;;;;35.23;28.17;;;;;;;3.54;65.29;95563.84;5067630;28;20221;-69
2023/12/29 01:32:32;;;;;;;42.53;30.23;;;;;;;3.59;65.40;95556.59;5073304;28;20274;-69
2023/12/29 01:34:57;;;;;;;39.43;30.03;;;;;;;3.65;64.94;95564.00;5077224;28;20224;-70
2023/12/29 01:37:23;;;;;;;38.57;28.60;;;;;;;3.64;65.20;95562.34;5071527;28;20266;-69
2023/12/29 01:39:48;;;;;;;35.23;28.40;;;;;;;3.56;64.84;95564.59;5073482;28;20189;-69
2023/12/29 01:42:14;;;;;;;32.63;27.03;;;;;;;3.60;64.84;95560.84;5075166;28;20216;-68
2023/12/29 01:44:39;;;;;;;40.93;28.17;;;;;;;3.41;65.32;95563.75;5067992;28;20219;-68
2023/12/29 01:47:15;;;;;;;37.50;30.40;;;;;;;3.42;65.55;95575.84;5072347;28;20312;-68
2023/12/29 01:49:41;;;;;;;36.70;29.33;;;;;;;3.26;66.33;95568.16;5063370;28;20244;-68
2023/12/29 01:52:07;;;;;;;36.43;28.37;;;;;;;3.32;65.81;95566.94;5071828;28;20213;-69
2023/12/29 01:54:35;;;;;;;39.33;28.67;;;;;;;3.27;66.46;95566.38;5073249;28;20184;-69
2023/12/29 01:57:02;;;;;;;35.90;28.50;;;;;;;3.26;67.02;95559.50;5070796;28;20230;-68
2023/12/29 01:59:28;;;;;;;39.43;30.03;;;;;;;3.33;67.05;95553.00;5077948;28;20251;-68
2023/12/29 02:01:57;;;;;;;39.60;29.17;;;;;;;3.38;67.57;95548.38;5077048;28;20227;-69
2023/12/29 02:04:26;;;;;;;36.30;29.73;;;;;;;3.54;67.41;95548.25;5071011;28;20216;-69
2023/12/29 02:06:52;;;;;;;32.30;27.90;;;;;;;3.63;67.31;95549.44;5079847;28;20191;-69
2023/12/29 02:09:18;;;;;;;40.87;25.60;;;;;;;3.69;66.48;95551.66;5083475;28;20216;-69
2023/12/29 02:11:44;;;;;;;36.17;25.40;;;;;;;3.67;65.91;95543.94;5077206;28;20303;-69
2023/12/29 02:14:10;;;;;;;30.47;23.80;;;;;;;3.46;66.11;95545.28;5075857;28;20228;-69
2023/12/29 02:16:52;;;;;;;36.73;28.97;;;;;;;3.48;66.70;95552.06;5078698;28;20225;-68
2023/12/29 02:19:41;;;;;;;37.40;28.80;;;;;;;3.54;66.23;95533.47;5079714;28;20220;-70
2023/12/29 02:22:09;;;;;;;35.57;28.87;;;;;;;3.54;65.80;95532.66;5066548;28;20196;-69
2023/12/29 02:24:38;;;;;;;38.53;30.10;;;;;;;3.62;65.75;95535.59;5076661;28;20195;-68
2023/12/29 02:27:41;;;;;;;40.90;29.00;;;;;;;3.55;66.22;95531.69;5081066;28;20293;-69
2023/12/29 02:30:06;;;;;;;42.50;29.87;;;;;;;3.62;65.96;95527.78;5074200;28;20228;-68
2023/12/29 02:32:34;;;;;;;43.80;30.50;;;;;;;3.57;65.96;95529.03;5069937;28;20225;-68
2023/12/29 02:35:01;;;;;;;41.90;30.50;;;;;;;3.36;66.44;95519.03;5076251;28;20234;-68
2023/12/29 02:37:28;;;;;;;38.27;26.13;;;;;;;3.37;66.42;95514.66;5076349;28;20266;-68
2023/12/29 02:39:55;;;;;;;43.73;27.73;;;;;;;3.41;65.73;95510.94;5074519;28;20192;-68
2023/12/29 02:42:21;;;;;;;35.17;28.63;;;;;;;3.30;66.31;95493.41;5081209;28;20216;-69
2023/12/29 02:44:46;;;;;;;39.43;30.10;;;;;;;3.24;66.75;95497.25;5074472;28;20219;-68
2023/12/29 02:47:12;;;;;;;39.73;29.13;;;;;;;3.18;67.80;95495.03;5069181;28;20229;-68
2023/12/29 02:49:37;;;;;;;37.50;29.37;;;;;;;3.30;66.74;95491.66;5070842;28;20232;-69
2023/12/29 02:52:03;;;;;;;36.77;29.13;;;;;;;3.29;66.56;95494.38;5074769;28;20295;-69
2023/12/29 02:54:28;;;;;;;37.97;28.40;;;;;;;3.32;66.35;95501.97;5077303;28;20211;-69
2023/12/29 02:56:54;;;;;;;35.70;27.70;;;;;;;3.32;66.35;95481.16;5071178;28;20224;-69
2023/12/29 02:59:19;;;;;;;33.03;28.40;;;;;;;3.39;65.91;95477.22;5072960;28;20240;-69
2023/12/29 03:01:44;;;;;;;37.40;27.73;;;;;;;3.36;66.00;95482.63;5073708;28;20351;-68
2023/12/29 03:04:10;;;;;;;38.57;29.30;;;;;;;3.45;65.70;95482.06;5075662;28;20188;-69
2023/12/29 03:06:35;;;;;;;39.70;29.87;;;;;;;3.39;65.80;95479.84;5084413;28;20208;-69
2023/12/29 03:09:01;;;;;;;44.67;33.40;;;;;;;3.45;65.88;95476.03;5075381;28;20269;-69
2023/12/29 03:11:26;;;;;;;45.77;37.13;;;;;;;3.43;65.48;95464.91;5069605;28;20224;-68
2023/12/29 03:13:52;;;;;;;51.83;38.67;;;;;;;3.39;65.49;95472.03;5072223;28;20225;-68
2023/12/29 03:16:17;;;;;;;47.57;37.63;;;;;;;3.30;65.65;95467.44;5074662;28;20248;-68
2023/12/29 03:18:42;;;;;;;48.87;38.37;;;;;;;3.17;66.35;95462.16;5074929;28;20220;-68
2023/12/29 03:21:08;;;;;;;48.47;38.20;;;;;;;3.26;65.82;95473.75;5075499;28;20215;-68
2023/12/29 03:23:35;;;;;;;49.30;35.87;;;;;;;3.16;66.15;95459.69;5079024;28;20221;-68
2023/12/29 03:26:00;;;;;;;45.77;37.27;;;;;;;3.22;66.15;95459.28;5072768;28;20228;-70
2023/12/29 03:28:26;;;;;;;52.80;38.87;;;;;;;3.19;66.18;95460.31;5079905;28;20208;-68
2023/12/29 03:30:51;;;;;;;50.23;39.87;;;;;;;3.02;66.43;95469.16;5072658;28;20216;-68
2023/12/29 03:33:16;;;;;;;53.53;38.27;;;;;;;2.78;67.55;95475.84;5076014;28;20248;-69
2023/12/29 03:35:42;;;;;;;46.87;38.17;;;;;;;2.82;67.93;95469.53;5075685;28;20257;-67
2023/12/29 03:38:07;;;;;;;49.93;36.60;;;;;;;2.85;66.96;95461.56;5074569;28;20217;-68
2023/12/29 03:40:33;;;;;;;45.70;35.23;;;;;;;2.93;66.75;95463.69;5073456;28;20240;-68
2023/12/29 03:42:58;;;;;;;43.37;32.50;;;;;;;2.93;66.80;95469.72;5072238;28;20185;-70
2023/12/29 03:45:24;;;;;;;41.13;34.47;;;;;;;2.95;66.45;95461.84;5082877;28;20256;-68
2023/12/29 03:47:49;;;;;;;42.43;32.53;;;;;;;2.86;66.75;95468.41;5073524;28;20308;-68
2023/12/29 03:50:14;;;;;;;38.03;30.97;;;;;;;2.76;67.26;95462.97;5075179;28;20309;-69
2023/12/29 03:52:40;;;;;;;39.00;30.83;;;;;;;2.64;67.85;95484.47;5082470;28;20251;-68
2023/12/29 03:55:06;;;;;;;39.73;30.23;;;;;;;2.81;67.19;95486.06;5073023;28;20206;-69
2023/12/29 03:57:31;;;;;;;35.20;28.93;;;;;;;2.87;67.50;95477.88;5069561;28;20173;-68
2023/12/29 03:59:56;;;;;;;35.63;28.57;;;;;;;3.02;66.73;95483.88;5074814;28;20288;-68
2023/12/29 04:02:22;;;;;;;35.37;29.10;;;;;;;2.93;66.74;95485.28;5077017;28;20227;-69
2023/12/29 04:04:47;;;;;;;35.83;29.73;;;;;;;2.83;66.74;95476.38;5076349;28;20235;-69
2023/12/29 04:07:13;;;;;;;41.23;29.97;;;;;;;2.98;66.40;95480.66;5069513;28;20185;-69
2023/12/29 04:09:38;;;;;;;35.90;28.30;;;;;;;2.88;66.38;95482.97;5080943;28;20183;-69
2023/12/29 04:12:04;;;;;;;37.70;29.50;;;;;;;2.90;66.41;95485.50;5068892;28;20317;-69
2023/12/29 04:14:29;;;;;;;35.17;28.70;;;;;;;2.77;66.44;95480.19;5070142;28;20294;-69
2023/12/29 04:16:54;;;;;;;40.73;26.83;;;;;;;2.76;67.25;95475.94;5075886;28;20216;-68
2023/12/29 04:19:20;;;;;;;37.90;29.80;;;;;;;2.81;67.99;95481.69;5074713;28;20212;-69
2023/12/29 04:21:45;;;;;;;34.80;28.97;;;;;;;2.70;68.49;95473.72;5068348;28;20183;-69
2023/12/29 04:24:11;;;;;;;34.37;29.00;;;;;;;2.77;68.57;95480.19;5075238;28;20220;-68
2023/12/29 04:26:37;;;;;;;39.90;30.07;;;;;;;2.85;67.03;95477.13;5066024;28;20221;-68
2023/12/29 04:29:02;;;;;;;37.77;29.00;;;;;;;2.79;66.90;95483.53;5070845;28;20216;-68
2023/12/29 04:31:28;;;;;;;38.20;29.60;;;;;;;2.81;66.51;95480.88;5079156;28;20224;-68
2023/12/29 04:33:53;;;;;;;41.13;28.63;;;;;;;2.83;66.25;95476.38;5079029;28;20181;-68
2023/12/29 04:36:18;;;;;;;34.80;28.17;;;;;;;2.73;66.47;95481.31;5075826;28;20221;-68
2023/12/29 04:38:44;;;;;;;35.73;29.03;;;;;;;2.60;66.85;95473.44;5075543;28;20223;-68
2023/12/29 04:41:11;;;;;;;39.17;30.00;;;;;;;2.75;66.65;95487.25;5071189;28;20269;-68
2023/12/29 04:43:37;;;;;;;36.53;28.90;;;;;;;2.73;66.40;95476.13;5071932;28;20238;-69
2023/12/29 04:46:03;;;;;;;37.60;28.50;;;;;;;2.78;66.23;95481.03;5078732;28;20281;-68
2023/12/29 04:48:28;;;;;;;38.60;30.20;;;;;;;2.74;66.54;95487.34;5073654;28;20286;-69
2023/12/29 04:50:53;;;;;;;39.47;30.07;;;;;;;2.71;66.43;95484.94;5075391;28;20311;-69
2023/12/29 04:53:19;;;;;;;39.27;27.17;;;;;;;2.72;66.31;95481.41;5072304;28;20228;-70
2023/12/29 04:55:44;;;;;;;36.33;28.43;;;;;;;2.75;65.95;95478.63;5076705;28;20217;-67
2023/12/29 04:58:10;;;;;;;37.17;29.67;;;;;;;2.57;66.49;95471.03;5078792;28;20185;-69
2023/12/29 05:00:35;;;;;;;36.73;29.37;;;;;;;2.65;66.66;95465.38;5075670;28;20177;-68
2023/12/29 05:03:01;;;;;;;36.03;29.53;;;;;;;2.64;66.59;95461.09;5070421;28;20284;-68
2023/12/29 05:05:26;;;;;;;39.47;30.30;;;;;;;2.60;66.71;95464.81;5074024;28;20227;-68
2023/12/29 05:07:51;;;;;;;36.13;29.53;;;;;;;2.66;66.25;95467.03;5072653;28;20285;-68
2023/12/29 05:10:17;;;;;;;41.63;31.47;;;;;;;2.55;66.49;95469.44;5071734;28;20225;-67
2023/12/29 05:12:42;;;;;;;38.30;30.63;;;;;;;2.62;66.00;95458.59;5070623;28;20279;-70
2023/12/29 05:15:08;;;;;;;39.73;30.00;;;;;;;2.70;65.93;95462.47;5067737;28;20229;-67
2023/12/29 05:17:33;;;;;;;39.50;31.53;;;;;;;2.65;65.94;95453.22;5068464;28;20295;-69
2023/12/29 05:19:59;;;;;;;39.90;30.83;;;;;;;2.64;66.29;95451.53;5077929;28;20266;-68
2023/12/29 05:22:24;;;;;;;34.27;27.67;;;;;;;2.47;66.96;95451.75;5078804;28;20234;-70
2023/12/29 05:24:50;;;;;;;41.77;28.30;;;;;;;2.36;67.45;95454.16;5073732;28;20256;-68
2023/12/29 05:27:15;;;;;;;37.27;30.60;;;;;;;2.51;66.80;95457.56;5074275;28;20208;-69
2023/12/29 05:29:41;;;;;;;39.77;30.97;;;;;;;2.49;67.00;95460.28;5069357;28;20221;-68
2023/12/29 05:32:07;;;;;;;39.33;32.83;;;;;;;2.46;67.05;95465.66;5072730;28;20314;-68
2023/12/29 05:34:32;;;;;;;37.60;31.50;;;;;;;2.42;67.09;95464.16;5081245;28;20229;-69
2023/12/29 05:36:58;;;;;;;40.03;32.50;;;;;;;2.52;66.79;95461.84;5078612;28;20214;-69
2023/12/29 05:39:24;;;;;;;44.03;34.47;;;;;;;2.54;66.89;95459.97;5075040;28;20187;-69
2023/12/29 05:41:49;;;;;;;49.03;37.77;;;;;;;2.43;66.92;95455.44;5078026;28;20237;-67
2023/12/29 05:44:15;;;;;;;55.73;40.47;;;;;;;2.55;66.48;95475.47;5075803;28;20251;-68
2023/12/29 05:46:41;;;;;;;52.77;41.37;;;;;;;2.45;67.22;95466.56;5080750;28;20217;-69
2023/12/29 05:49:06;;;;;;;58.93;44.00;;;;;;;2.46;67.06;95476.03;5071750;28;20247;-69
2023/12/29 05:51:32;;;;;;;53.17;41.77;;;;;;;2.53;66.61;95472.13;5082948;28;20229;-69
2023/12/29 05:53:57;;;;;;;57.27;45.17;;;;;;;2.60;66.60;95473.44;5076066;28;20220;-68
2023/12/29 05:56:22;;;;;;;52.87;44.30;;;;;;;2.53;66.73;95473.88;5075093;28;20217;-68
2023/12/29 05:58:48;;;;;;;54.37;45.57;;;;;;;2.46;67.16;95465.66;5073798;28;20213;-69
2023/12/29 06:01:13;;;;;;;61.80;47.53;;;;;;;2.51;67.25;95467.94;5074284;28;20193;-68
2023/12/29 06:03:39;;;;;;;60.77;41.67;;;;;;;2.47;67.36;95466.47;5076081;28;20182;-69
2023/12/29 06:06:05;;;;;;;52.60;40.57;;;;;;;2.42;67.58;95458.97;5069940;28;20232;-69
2023/12/29 06:08:30;;;;;;;51.90;41.60;;;;;;;2.57;67.05;95465.00;5070972;28;20267;-69
2023/12/29 06:10:56;;;;;;;50.53;41.83;;;;;;;2.51;66.97;95453.19;5076913;28;20277;-70
2023/12/29 06:13:21;;;;;;;54.20;43.90;;;;;;;2.47;67.00;95445.72;5063994;28;20236;-68
2023/12/29 06:15:47;;;;;;;61.23;45.60;;;;;;;2.31;68.24;95454.41;5075475;28;20184;-69
2023/12/29 06:18:13;;;;;;;59.87;46.60;;;;;;;2.42;68.02;95451.16;5073688;28;20782;-69
2023/12/29 06:20:38;;;;;;;59.30;47.97;;;;;;;2.52;67.88;95454.06;5070371;28;20233;-69
2023/12/29 06:23:04;;;;;;;60.63;46.80;;;;;;;2.61;67.67;95453.50;5081481;28;20243;-69
2023/12/29 06:25:29;;;;;;;53.40;40.57;;;;;;;2.54;67.32;95458.25;5082240;28;20220;-69
2023/12/29 06:27:55;;;;;;;59.20;48.23;;;;;;;3.00;65.88;95465.81;5073929;28;20187;-70
2023/12/29 06:30:20;;;;;;;58.17;44.50;;;;;;;2.67;66.85;95468.69;5075393;28;20253;-70
2023/12/29 06:32:46;;;;;;;60.73;47.93;;;;;;;2.48;67.41;95465.53;5072034;28;20225;-68
2023/12/29 06:35:11;;;;;;;56.93;41.50;;;;;;;2.27;68.01;95465.88;5072955;28;20225;-69
2023/12/29 06:37:39;;;;;;;56.97;45.43;;;;;;;2.29;67.77;95471.00;5083272;28;20221;-69
2023/12/29 06:40:06;;;;;;;55.70;43.93;;;;;;;2.39;68.16;95480.75;5072870;28;20228;-70
2023/12/29 06:42:32;;;;;;;64.10;46.33;;;;;;;2.24;68.12;95475.63;5076026;28;20272;-70
2023/12/29 06:44:57;;;;;;;56.93;45.10;;;;;;;2.29;68.20;95463.22;5067993;28;20294;-69
2023/12/29 06:47:23;;;;;;;55.73;45.50;;;;;;;2.49;67.56;95462.88;5081475;28;20265;-69
2023/12/29 06:49:48;;;;;;;56.23;44.60;;;;;;;2.47;67.24;95464.72;5074675;28;20235;-69
2023/12/29 06:52:14;;;;;;;54.53;43.87;;;;;;;2.52;67.26;95464.44;5074214;28;20250;-69
2023/12/29 06:54:39;;;;;;;56.50;43.47;;;;;;;2.61;67.36;95467.31;5076380;28;20184;-69
2023/12/29 06:57:05;;;;;;;57.33;43.53;;;;;;;2.64;67.01;95472.31;5080428;28;20212;-67
2023/12/29 06:59:30;;;;;;;59.90;44.00;;;;;;;2.62;67.38;95460.38;5081196;28;20225;-68
2023/12/29 07:01:56;;;;;;;56.67;40.23;;;;;;;2.80;66.94;95480.00;5081381;28;20221;-69
2023/12/29 07:04:21;;;;;;;58.83;47.27;;;;;;;2.79;67.16;95480.13;5076030;28;20236;-68
2023/12/29 07:06:47;;;;;;;59.37;44.40;;;;;;;3.08;66.41;95484.38;5084229;28;20195;-69
2023/12/29 07:09:12;;;;;;;59.27;42.03;;;;;;;2.95;66.42;95470.47;5075670;28;20267;-69
2023/12/29 07:11:38;;;;;;;59.37;42.07;;;;;;;2.91;66.63;95478.53;5075044;28;20221;-69
2023/12/29 07:14:03;;;;;;;58.00;39.97;;;;;;;2.88;66.76;95472.59;5072755;28;20213;-70
2023/12/29 07:16:29;;;;;;;55.43;41.90;;;;;;;2.95;66.56;95472.22;5072152;28;20266;-70
2023/12/29 07:18:54;;;;;;;55.20;40.90;;;;;;;2.94;66.43;95466.19;5082216;28;20196;-69
2023/12/29 07:21:20;;;;;;;51.93;40.43;;;;;;;3.10;66.39;95471.25;5085894;28;20307;-70
2023/12/29 07:23:45;;;;;;;51.83;38.40;;;;;;;3.14;66.34;95477.13;5068172;28;20232;-71
2023/12/29 07:26:11;;;;;;;53.97;39.17;;;;;;;3.27;66.25;95454.63;5072726;28;20223;-70
2023/12/29 07:28:36;;;;;;;50.97;39.07;;;;;;;3.51;65.61;95440.06;5070341;28;20221;-69
2023/12/29 07:31:05;;;;;;;52.60;39.33;;;;;;;3.56;65.36;95454.56;5073987;28;20209;-68
2023/12/29 07:33:36;;;;;;;52.77;38.23;;;;;;;3.64;65.81;95447.09;5073731;28;20185;-74
2023/12/29 07:36:02;;;;;;;52.27;38.90;;;;;;;3.68;65.98;95448.53;5073248;28;20212;-68
2023/12/29 07:38:27;;;;;;;51.60;37.50;;;;;;;3.54;66.11;95445.06;5075508;28;20274;-75
2023/12/29 07:40:53;;;;;;;50.90;37.20;;;;;;;3.67;65.95;95444.28;5072293;28;20295;-73
2023/12/29 07:43:18;;;;;;;49.67;37.33;;;;;;;3.67;65.96;95436.50;5084142;28;20216;-74
2023/12/29 07:45:44;;;;;;;47.80;36.60;;;;;;;3.88;65.36;95450.69;5075833;28;20180;-72
2023/12/29 07:48:09;;;;;;;48.17;35.73;;;;;;;3.91;65.15;95447.88;5075344;28;20223;-75
2023/12/29 07:50:35;;;;;;;45.63;32.90;;;;;;;4.03;64.50;95438.44;5072878;28;20228;-74
2023/12/29 07:53:02;;;;;;;42.70;32.00;;;;;;;4.14;64.29;95450.72;5072277;28;20303;-75
2023/12/29 07:55:31;;;;;;;41.70;32.20;;;;;;;4.21;64.73;95459.81;5072233;28;20213;-71
2023/12/29 07:57:56;;;;;;;41.87;33.67;;;;;;;4.45;63.72;95470.34;5076758;28;20188;-72
2023/12/29 08:00:23;;;;;;;46.40;34.57;;;;;;;4.42;63.96;95460.13;5068906;28;20220;-70
2023/12/29 08:02:48;;;;;;;45.47;34.23;;;;;;;4.47;63.79;95467.66;5082000;28;20220;-75
2023/12/29 08:05:15;;;;;;;43.30;33.00;;;;;;;4.36;63.70;95461.38;5072650;28;20312;-69
2023/12/29 08:07:41;;;;;;;43.10;32.83;;;;;;;4.38;63.92;95469.09;5077337;28;20211;-70
2023/12/29 08:10:07;;;;;;;43.40;33.27;;;;;;;4.56;63.64;95470.44;5080849;28;20181;-70
2023/12/29 08:12:35;;;;;;;41.13;32.40;;;;;;;4.58;63.40;95463.38;5073732;28;20212;-70
2023/12/29 08:15:02;;;;;;;37.23;29.30;;;;;;;4.82;62.88;95465.25;5073949;28;20220;-70
2023/12/29 08:17:29;;;;;;;43.50;32.23;;;;;;;4.68;63.21;95450.56;5078436;28;20220;-74
2023/12/29 08:19:54;;;;;;;45.33;33.77;;;;;;;4.78;63.34;95467.19;5079894;28;20285;-74
2023/12/29 08:22:20;;;;;;;50.97;38.93;;;;;;;4.61;63.21;95464.94;5074891;28;20248;-68
2023/12/29 08:24:45;;;;;;;53.97;41.13;;;;;;;4.64;63.16;95462.13;5065074;28;20189;-71
2023/12/29 08:27:14;;;;;;;55.87;42.83;;;;;;;4.62;63.90;95469.19;5070398;28;20227;-74
2023/12/29 08:29:40;;;;;;;54.97;44.23;;;;;;;4.79;62.64;95461.06;5069798;28;20224;-69
2023/12/29 08:32:06;;;;;;;63.70;47.03;;;;;;;4.90;62.38;95467.31;5073624;28;20277;-69
2023/12/29 08:34:31;;;;;;;55.30;44.93;;;;;;;4.88;62.53;95469.19;5072463;28;20249;-68
2023/12/29 08:36:57;;;;;;;67.27;50.60;;;;;;;5.02;61.86;95469.88;5075352;28;20279;-68
2023/12/29 08:39:23;;;;;;;66.40;50.93;;;;;;;5.00;61.08;95478.78;5070727;28;20188;-73
2023/12/29 08:41:51;;;;;;;71.47;54.20;;;;;;;5.05;61.02;95472.31;5069723;28;20217;-70
2023/12/29 08:44:17;;;;;;;72.47;54.80;;;;;;;5.08;60.99;95460.84;5065651;28;20227;-67
2023/12/29 08:46:42;;;;;;;72.07;55.37;;;;;;;5.07;61.08;95467.78;5077248;28;20216;-70
2023/12/29 08:49:07;;;;;;;72.90;55.67;;;;;;;5.20;60.27;95473.00;5075686;28;20210;-70
2023/12/29 08:51:33;;;;;;;61.27;47.83;;;;;;;5.34;60.09;95473.78;5076169;28;20236;-69
2023/12/29 08:53:59;;;;;;;62.77;46.77;;;;;;;5.26;60.03;95464.72;5081059;28;20261;-70
2023/12/29 08:56:25;;;;;;;58.20;44.23;;;;;;;5.43;59.41;95470.53;5054513;28;20220;-73
2023/12/29 08:58:50;;;;;;;53.20;43.33;;;;;;;5.47;59.40;95467.59;5071490;28;20245;-68
2023/12/29 09:01:16;;;;;;;55.50;44.90;;;;;;;5.52;59.58;95477.69;5067622;28;20228;-68
2023/12/29 09:03:42;;;;;;;57.63;43.00;;;;;;;5.63;59.41;95463.88;5066848;28;20196;-71
2023/12/29 09:06:08;;;;;;;47.40;40.17;;;;;;;5.79;59.23;95464.44;5074506;28;20283;-76
2023/12/29 09:08:34;;;;;;;49.03;38.63;;;;;;;5.88;59.44;95471.63;5080143;28;20251;-70
2023/12/29 09:10:59;;;;;;;44.77;36.03;;;;;;;5.87;59.39;95469.94;5076362;28;20258;-69
2023/12/29 09:13:26;;;;;;;38.00;33.10;;;;;;;5.99;59.41;95465.63;5076410;28;20249;-69
2023/12/29 09:15:53;;;;;;;38.50;31.40;;;;;;;6.10;59.52;95460.44;5080849;28;20214;-76
2023/12/29 09:18:18;;;;;;;39.37;32.97;;;;;;;6.14;59.48;95455.81;5073788;28;20232;-68
2023/12/29 09:20:43;;;;;;;41.70;34.13;;;;;;;6.23;59.73;95457.78;5081615;28;20216;-67
2023/12/29 09:23:09;;;;;;;37.37;31.37;;;;;;;6.31;59.80;95450.19;5083924;28;20216;-67
2023/12/29 09:25:34;;;;;;;38.23;29.63;;;;;;;6.38;59.44;95450.53;5085850;28;20219;-68
2023/12/29 09:28:00;;;;;;;39.40;31.37;;;;;;;6.46;59.77;95444.75;5068571;28;20216;-72
2023/12/29 09:30:25;;;;;;;40.07;31.13;;;;;;;6.59;59.30;95446.31;5077267;28;20209;-72
2023/12/29 09:32:51;;;;;;;33.20;28.73;;;;;;;6.62;59.54;95440.03;5074537;28;20231;-73
2023/12/29 09:35:17;;;;;;;36.53;30.97;;;;;;;6.73;59.24;95431.34;5086966;28;20304;-71
2023/12/29 09:37:42;;;;;;;36.53;27.27;;;;;;;6.87;59.22;95433.75;5073716;28;20225;-70
2023/12/29 09:40:10;;;;;;;33.47;27.13;;;;;;;6.97;59.51;95433.84;5076301;28;20254;-72
2023/12/29 09:42:37;;;;;;;37.20;27.43;;;;;;;7.11;59.62;95432.78;5060019;28;20604;-71
2023/12/29 09:45:09;;;;;;;32.43;26.30;;;;;;;7.12;59.24;95418.75;5080557;28;20310;-72
2023/12/29 09:47:38;;;;;;;31.57;26.50;;;;;;;7.23;59.39;95413.50;5073154;28;20226;-69
2023/12/29 09:50:05;;;;;;;33.13;25.87;;;;;;;7.33;59.12;95424.91;5083574;28;20301;-69
2023/12/29 09:52:30;;;;;;;32.60;25.30;;;;;;;7.44;58.60;95426.66;5083509;28;20231;-76
2023/12/29 09:54:57;;;;;;;35.43;26.70;;;;;;;7.42;58.99;95426.78;5073274;28;20181;-75
2023/12/29 09:57:24;;;;;;;35.17;26.93;;;;;;;7.45;58.47;95410.00;5074821;28;20181;-74
2023/12/29 09:59:54;;;;;;;39.53;30.77;;;;;;;7.59;57.81;95408.88;5074629;28;20221;-71
2023/12/29 10:02:22;;;;;;;37.70;29.13;;;;;;;7.73;56.87;95411.25;5067187;28;20224;-68
2023/12/29 10:04:47;;;;;;;37.23;30.07;;;;;;;7.75;56.71;95398.84;5078852;28;20220;-70
2023/12/29 10:07:23;;;;;;;40.10;30.10;;;;;;;7.77;56.13;95391.69;5075571;28;20212;-76
2023/12/29 10:09:52;;;;;;;40.10;29.73;;;;;;;8.04;55.74;95398.25;5079191;28;20191;-70
2023/12/29 10:12:19;;;;;;;38.90;29.17;;;;;;;7.74;56.47;95384.09;5078241;28;20229;-76
2023/12/29 10:15:06;;;;;;;34.60;28.97;;;;;;;7.76;57.23;95376.97;5072177;28;20269;-75
2023/12/29 10:17:43;;;;;;;38.70;29.47;;;;;;;7.70;57.26;95385.31;5070704;28;20255;-71
2023/12/29 10:20:30;;;;;;;32.10;27.87;;;;;;;7.79;56.65;95371.47;5082497;28;20262;-70
2023/12/29 10:23:12;;;;;;;39.23;29.47;;;;;;;8.10;55.71;95371.53;5074320;28;20249;-72
2023/12/29 10:25:39;;;;;;;39.20;28.63;;;;;;;8.03;55.85;95371.22;5088064;28;20213;-72
2023/12/29 10:28:06;;;;;;;35.13;28.33;;;;;;;8.15;55.75;95353.66;5078988;28;20187;-76
2023/12/29 10:30:32;;;;;;;37.13;27.83;;;;;;;8.34;55.13;95351.16;5077268;28;20200;-70
2023/12/29 10:32:59;;;;;;;36.57;27.83;;;;;;;8.60;54.54;95342.88;5070960;28;20225;-71
2023/12/29 10:35:25;;;;;;;33.73;28.07;;;;;;;8.51;54.68;95334.03;5075835;28;20212;-71
2023/12/29 10:37:50;;;;;;;33.50;28.50;;;;;;;8.73;54.37;95340.88;5068506;28;20263;-71
2023/12/29 10:40:19;;;;;;;32.10;28.03;;;;;;;8.83;54.57;95333.88;5070734;28;20681;-76
2023/12/29 10:42:52;;;;;;;36.37;27.90;;;;;;;9.02;53.97;95329.66;5082099;28;20184;-70
2023/12/29 10:45:18;;;;;;;31.70;26.97;;;;;;;9.10;53.53;95329.78;5074487;28;20217;-70
2023/12/29 10:47:44;;;;;;;32.70;27.67;;;;;;;9.20;53.61;95320.16;5074181;28;20224;-72
2023/12/29 10:50:09;;;;;;;34.83;27.67;;;;;;;9.31;53.41;95321.81;5071918;28;20245;-68
2023/12/29 10:52:37;;;;;;;31.27;26.10;;;;;;;9.67;52.68;95320.31;5072310;28;20660;-68
2023/12/29 10:55:09;;;;;;;37.28;27.73;;;;;;;9.96;51.52;95308.94;5059723;28;20184;-68
2023/12/29 10:57:36;;;;;;;40.90;27.67;;;;;;;10.12;50.87;95309.19;5062530;28;20216;-69
2023/12/29 11:00:03;;;;;;;36.13;28.03;;;;;;;10.18;50.66;95314.84;5080498;28;20246;-68
2023/12/29 11:02:29;;;;;;;33.58;28.00;;;;;;;10.04;50.92;95300.38;5078211;28;20221;-67
2023/12/29 11:05:06;;;;;;;33.33;26.13;;;;;;;10.17;50.70;95298.28;5079523;28;20721;-68
2023/12/29 11:07:33;;;;;;;31.73;25.60;;;;;;;10.03;51.07;95294.28;5071684;28;20209;-68
2023/12/29 11:10:04;;;;;;;30.10;25.73;;;;;;;9.83;51.73;95282.97;5080158;28;20202;-73
2023/12/29 11:12:34;;;;;;;33.03;26.35;;;;;;;9.91;51.39;95283.09;5082302;28;20193;-76
2023/12/29 11:15:05;;;;;;;34.33;27.98;;;;;;;9.97;51.77;95281.72;5076024;28;20304;-75
2023/12/29 11:17:35;;;;;;;37.20;30.50;;;;;;;10.08;51.44;95278.13;5062692;28;20228;-68
2023/12/29 11:20:03;;;;;;;38.00;31.65;;;;;;;10.19;51.48;95285.81;5048359;28;20321;-71